Berlin, NH

3:53 AM EST on January 31, 2015 (GMT -0500)
Norwegian village | Change Station
CLOSE
Current Station
Personal Weather Station
Location: Berlin, NH
Elevation: 1099 ft
Nearby Weather Stations

Elev 1099 ft 44.48 °N, 71.17 °W | Updated 47 seconds ago

Overcast
Overcast
2.5 °F
Feels Like 2 °F
N
2.2
Wind Variable Wind from SW
Gusts 4.5 mph

Today
High -- | Low -- °F
--% Chance of Precip.
Yesterday
High -- | Low -- °F
Precip. -- in
7:04 AM 4:52 PM
Waxing Gibbous, 88% visible
Pressure 29.94 in
Visibility 6.0 miles
Clouds Overcast 9000 ft
Windchill 2 °F
Dew Point -10 °F
Humidity 52%
Rainfall 0.00 in
Snow Depth Not available.
UV 0 out of 12
Pollen .10 out of 12
Air Quality Not available.
Flu Activity Not available.
METAR KBML 310752Z AUTO 32009KT 6SM -SN OVC090 M15/M21 A2987 RMK AO2 SLP137 P0000 T11501211

More Conditions Fewer Conditions

Pressure 29.94 in
Visibility 6.0 miles
Clouds Overcast 9000 ft
Windchill 2 °F
Dew Point -10 °F
Humidity 52%
Rainfall 0.00 in
Snow Depth Not available.
UV 0 out of 12
Pollen .10 out of 12
Air Quality Not available.
Flu Activity Not available.
METAR KBML 310752Z AUTO 32009KT 6SM -SN OVC090 M15/M21 A2987 RMK AO2 SLP137 P0000 T11501211

More Conditions Fewer Conditions

10-Day Weather Forecast

Almanac

Astronomy

Jan. 31, 2015 Rise Set
Actual Time
Civil Twilight
Nautical Twilight
Astronomical Twilight
Moon
Length of Visible Light
Length of Day
Tomorrow will be .
, % of the Moon is Illuminated

Today's Extremes

State Highs State Lows

Community

WunderPhotos

Upload Photos

1,792,021 photos uploaded!

WunderBlogs® & News

Nearby

Air Quality

  Air Quality AQ Index Pollutant
Not available.

Snow Depth

Station Depth Elevation

Earthquake Activity

City Distance Mag. Time & Date
Minimum magnitude displayed is 2.5.

Coastal Water Temperatures

Place Temperature

Nearby Weather Stations